createdAt,value
2022-10-28T00:00:52.809Z,10.00
2022-10-28T00:02:24.591Z,10.23
2022-10-28T00:03:59.014Z,8.93
2022-10-28T00:05:34.286Z,11.07
2022-10-28T00:07:06.057Z,10.70
2022-10-28T00:08:38.747Z,10.20
2022-10-28T00:10:10.536Z,11.65
2022-10-28T00:11:42.259Z,11.23
2022-10-28T00:13:14.019Z,11.82
2022-10-28T00:14:45.827Z,14.60
2022-10-28T00:16:24.433Z,11.88
2022-10-28T00:17:56.365Z,10.05
2022-10-28T00:19:28.458Z,12.00
2022-10-28T00:21:06.470Z,11.82
2022-10-28T00:22:38.231Z,11.15
2022-10-28T00:24:11.882Z,9.98
2022-10-28T00:25:43.638Z,9.52
2022-10-28T00:27:15.385Z,9.75
2022-10-28T00:28:53.050Z,9.80
2022-10-28T00:30:24.835Z,9.45
2022-10-28T00:31:56.617Z,11.90
2022-10-28T00:33:28.349Z,10.57
2022-10-28T00:35:00.135Z,9.38
2022-10-28T00:36:34.832Z,9.88
2022-10-28T00:38:06.571Z,9.57
2022-10-28T00:39:38.367Z,10.18
2022-10-28T00:41:11.607Z,9.73
2022-10-28T00:42:43.351Z,8.70
2022-10-28T00:44:43.686Z,10.30
2022-10-28T00:46:45.854Z,10.48
2022-10-28T00:48:17.609Z,8.73
2022-10-28T00:49:51.801Z,7.97
2022-10-28T00:51:25.450Z,8.32
2022-10-28T00:53:04.913Z,9.68
2022-10-28T00:54:38.056Z,8.77
2022-10-28T00:56:11.543Z,10.38
2022-10-28T00:57:45.074Z,9.98
2022-10-28T00:59:19.949Z,9.65
2022-10-28T01:00:51.664Z,9.20
2022-10-28T01:02:23.553Z,10.52
2022-10-28T01:03:57.192Z,9.38
2022-10-28T01:05:32.718Z,8.50
2022-10-28T01:07:04.499Z,9.57
2022-10-28T01:08:36.436Z,9.43
2022-10-28T01:10:09.528Z,9.15
2022-10-28T01:12:11.907Z,9.60
2022-10-28T01:13:52.482Z,8.60
2022-10-28T01:15:55.743Z,9.13
2022-10-28T01:17:40.165Z,9.85
2022-10-28T01:19:42.732Z,8.18
2022-10-28T01:21:20.576Z,9.57
2022-10-28T01:22:58.002Z,8.38
2022-10-28T01:24:54.881Z,8.48
2022-10-28T01:26:51.420Z,8.82
2022-10-28T01:28:38.130Z,7.15
2022-10-28T01:30:16.679Z,9.50
2022-10-28T01:31:54.255Z,10.93
2022-10-28T01:33:35.814Z,9.57
2022-10-28T01:35:19.935Z,10.20
2022-10-28T01:37:06.282Z,9.18
2022-10-28T01:38:55.742Z,9.10
2022-10-28T01:40:55.297Z,9.98
2022-10-28T01:42:33.345Z,10.27
2022-10-28T01:44:20.014Z,9.23
2022-10-28T01:46:00.354Z,8.80
2022-10-28T01:47:40.973Z,8.68
2022-10-28T01:49:19.796Z,9.55
2022-10-28T01:51:00.138Z,11.18
2022-10-28T01:52:32.747Z,11.15
2022-10-28T01:54:07.901Z,11.05
2022-10-28T01:55:42.832Z,10.60
2022-10-28T01:57:16.110Z,11.13
2022-10-28T01:58:49.752Z,10.13
2022-10-28T02:00:21.784Z,11.88
2022-10-28T02:01:54.345Z,10.43
2022-10-28T02:03:28.067Z,10.80
2022-10-28T02:05:35.020Z,10.68
2022-10-28T02:07:06.817Z,9.70
2022-10-28T02:08:47.558Z,12.65
2022-10-28T02:10:27.796Z,9.02
2022-10-28T02:12:24.418Z,9.65
2022-10-28T02:14:17.190Z,12.32
2022-10-28T02:16:19.215Z,10.32
2022-10-28T02:18:20.721Z,12.20
2022-10-28T02:20:24.828Z,11.80
2022-10-28T02:22:04.678Z,13.63
2022-10-28T02:23:44.476Z,14.75
2022-10-28T02:25:29.030Z,13.25
2022-10-28T02:27:35.486Z,13.23
2022-10-28T02:29:16.645Z,11.40
2022-10-28T02:30:59.938Z,12.40
2022-10-28T02:32:40.645Z,14.27
2022-10-28T02:34:18.532Z,11.75
2022-10-28T02:35:55.917Z,14.15
2022-10-28T02:37:32.889Z,14.57
2022-10-28T02:39:06.738Z,10.35
2022-10-28T02:40:40.315Z,13.48
2022-10-28T02:42:38.677Z,11.57
2022-10-28T02:44:19.101Z,14.15
2022-10-28T02:45:57.660Z,14.43
2022-10-28T02:47:33.891Z,14.50
2022-10-28T02:49:10.457Z,12.25
2022-10-28T02:50:48.416Z,13.60
2022-10-28T02:52:22.741Z,15.48
2022-10-28T02:54:07.236Z,11.27
2022-10-28T02:55:43.646Z,14.10
2022-10-28T02:57:19.752Z,13.40
2022-10-28T02:58:51.701Z,12.20
2022-10-28T03:00:25.069Z,14.20
2022-10-28T03:01:57.229Z,12.90
2022-10-28T03:03:29.188Z,12.25
2022-10-28T03:05:00.922Z,14.57
2022-10-28T03:06:33.100Z,15.52
2022-10-28T03:08:05.251Z,15.38
2022-10-28T03:09:37.041Z,15.00
2022-10-28T03:11:08.777Z,16.70
2022-10-28T03:12:40.564Z,15.25
2022-10-28T03:14:14.659Z,15.05
2022-10-28T03:15:47.429Z,14.10
2022-10-28T03:17:19.193Z,14.68
2022-10-28T03:18:50.941Z,16.50
2022-10-28T03:20:22.665Z,13.43
2022-10-28T03:21:54.730Z,16.33
2022-10-28T03:23:26.462Z,14.80
2022-10-28T03:24:58.251Z,12.88
2022-10-28T03:26:30.034Z,16.73
2022-10-28T03:28:01.795Z,15.75
2022-10-28T03:29:33.609Z,15.07
2022-10-28T03:31:05.562Z,13.43
2022-10-28T03:32:37.300Z,15.43
2022-10-28T03:34:09.030Z,15.45
2022-10-28T03:35:40.776Z,15.43
2022-10-28T03:37:12.505Z,14.10
2022-10-28T03:38:44.254Z,16.27
2022-10-28T03:40:16.214Z,15.57
2022-10-28T03:41:47.973Z,15.13
2022-10-28T03:43:19.713Z,16.38
2022-10-28T03:44:51.453Z,15.55
2022-10-28T03:46:23.216Z,17.13
2022-10-28T03:47:55.353Z,15.70
2022-10-28T03:49:27.399Z,13.27
2022-10-28T03:50:59.174Z,14.80
2022-10-28T03:52:30.925Z,14.18
2022-10-28T03:54:02.691Z,15.90
2022-10-28T03:55:34.478Z,18.35
2022-10-28T03:57:06.242Z,16.92
2022-10-28T03:58:41.103Z,16.05
2022-10-28T04:00:14.029Z,18.20
2022-10-28T04:01:45.930Z,16.90
2022-10-28T04:03:19.440Z,16.88
2022-10-28T04:04:51.173Z,17.63
2022-10-28T04:06:23.072Z,18.38
2022-10-28T04:07:54.798Z,15.48
2022-10-28T04:09:26.557Z,15.00
2022-10-28T04:10:58.350Z,19.83
2022-10-28T04:12:30.102Z,20.40
2022-10-28T04:14:01.941Z,20.50
2022-10-28T04:15:33.885Z,16.60
2022-10-28T04:17:05.630Z,17.23
2022-10-28T04:18:37.357Z,19.33
2022-10-28T04:20:09.679Z,19.30
2022-10-28T04:21:41.523Z,20.90
2022-10-28T04:23:16.630Z,18.38
2022-10-28T04:24:48.361Z,20.10
2022-10-28T04:26:20.110Z,16.52
2022-10-28T04:27:52.174Z,19.08
2022-10-28T04:29:24.115Z,17.85
2022-10-28T04:30:55.942Z,19.60
2022-10-28T04:32:27.835Z,22.50
2022-10-28T04:33:59.550Z,23.02
2022-10-28T04:35:31.310Z,21.92
2022-10-28T04:37:03.036Z,23.63
2022-10-28T04:38:34.786Z,22.15
2022-10-28T04:40:07.601Z,22.05
2022-10-28T04:41:39.416Z,20.58
2022-10-28T04:43:11.880Z,23.38
2022-10-28T04:44:43.642Z,20.95
2022-10-28T04:46:15.391Z,19.63
2022-10-28T04:47:47.152Z,21.98
2022-10-28T04:49:18.898Z,21.25
2022-10-28T04:50:51.127Z,22.45
2022-10-28T04:52:22.881Z,18.67
2022-10-28T04:53:54.636Z,22.17
2022-10-28T04:55:26.409Z,22.20
2022-10-28T04:56:58.161Z,24.30
2022-10-28T04:58:29.886Z,23.48
2022-10-28T05:00:01.761Z,22.20
2022-10-28T05:01:34.811Z,23.80
2022-10-28T05:03:07.098Z,21.02
2022-10-28T05:04:38.839Z,20.10
2022-10-28T05:06:10.609Z,22.98
2022-10-28T05:07:42.403Z,19.90
2022-10-28T05:09:14.483Z,20.63
2022-10-28T05:10:50.136Z,21.50
2022-10-28T05:12:21.913Z,23.45
2022-10-28T05:13:54.229Z,24.95
2022-10-28T05:15:26.718Z,23.67
2022-10-28T05:16:58.532Z,23.10
2022-10-28T05:18:30.257Z,25.13
2022-10-28T05:20:02.017Z,22.27
2022-10-28T05:21:34.630Z,20.67
2022-10-28T05:23:06.486Z,21.52
2022-10-28T05:24:38.246Z,22.70
2022-10-28T05:26:10.038Z,22.80
2022-10-28T05:27:42.283Z,23.35
2022-10-28T05:29:14.053Z,22.00
2022-10-28T05:30:45.793Z,22.40
2022-10-28T05:32:17.586Z,20.63
2022-10-28T05:33:49.430Z,22.30
2022-10-28T05:35:21.178Z,21.52
2022-10-28T05:36:52.943Z,20.60
2022-10-28T05:38:24.685Z,24.05
2022-10-28T05:39:56.478Z,22.75
2022-10-28T05:41:28.323Z,22.83
2022-10-28T05:43:01.537Z,21.13
2022-10-28T05:44:33.276Z,22.05
2022-10-28T05:46:05.358Z,24.60
2022-10-28T05:47:39.281Z,24.25
2022-10-28T05:49:11.897Z,23.27
2022-10-28T05:50:43.659Z,24.42
2022-10-28T05:52:15.385Z,22.02
2022-10-28T05:53:47.246Z,22.90
2022-10-28T05:55:20.620Z,22.85
2022-10-28T05:56:52.390Z,20.80
2022-10-28T05:58:24.201Z,23.98
2022-10-28T05:59:56.123Z,22.80
2022-10-28T06:01:27.923Z,23.15
2022-10-28T06:03:10.269Z,20.02
2022-10-28T06:04:42.367Z,22.40
2022-10-28T06:06:14.145Z,24.33
2022-10-28T06:07:45.881Z,22.88
2022-10-28T06:09:17.653Z,20.23
2022-10-28T06:10:55.474Z,22.38
2022-10-28T06:12:27.294Z,20.42
2022-10-28T06:13:59.088Z,20.85
2022-10-28T06:15:31.150Z,22.70
2022-10-28T06:17:02.955Z,20.60
2022-10-28T06:18:34.749Z,23.25
2022-10-28T06:20:06.988Z,19.77
2022-10-28T06:21:38.934Z,22.25
2022-10-28T06:23:10.691Z,21.95
2022-10-28T06:24:42.503Z,22.90
2022-10-28T06:26:14.233Z,20.25
2022-10-28T06:27:52.462Z,19.95
2022-10-28T06:29:24.679Z,17.73
2022-10-28T06:31:04.713Z,19.30
2022-10-28T06:32:36.456Z,22.63
2022-10-28T06:34:09.080Z,20.75
2022-10-28T06:35:41.073Z,18.88
2022-10-28T06:37:13.002Z,20.60
2022-10-28T06:38:44.812Z,19.73
2022-10-28T06:40:16.617Z,17.63
2022-10-28T06:41:48.923Z,16.98
2022-10-28T06:43:20.650Z,19.58
2022-10-28T06:44:53.286Z,19.63
2022-10-28T06:46:25.925Z,18.67
2022-10-28T06:48:05.101Z,23.25
2022-10-28T06:49:36.871Z,17.63
2022-10-28T06:51:08.661Z,18.98
2022-10-28T06:52:40.480Z,18.48
2022-10-28T06:54:12.259Z,19.63
2022-10-28T06:55:48.898Z,18.73
2022-10-28T06:57:20.732Z,17.33
2022-10-28T06:58:54.333Z,16.83
2022-10-28T07:00:26.966Z,18.45
2022-10-28T07:01:59.000Z,16.25
2022-10-28T07:03:33.023Z,15.95
2022-10-28T07:05:05.104Z,15.68
2022-10-28T07:06:36.905Z,17.55
2022-10-28T07:08:08.709Z,16.80
2022-10-28T07:09:42.477Z,17.42
2022-10-28T07:11:14.232Z,18.88
2022-10-28T07:12:45.956Z,17.70
2022-10-28T07:14:17.764Z,19.20
2022-10-28T07:15:53.268Z,17.95
2022-10-28T07:17:25.060Z,16.55
2022-10-28T07:18:56.827Z,16.55
2022-10-28T07:20:29.494Z,14.95
2022-10-28T07:22:01.223Z,18.38
2022-10-28T07:23:34.333Z,16.50
2022-10-28T07:25:06.625Z,17.33
2022-10-28T07:26:38.377Z,17.65
2022-10-28T07:28:10.191Z,15.93
2022-10-28T07:29:41.965Z,16.98
2022-10-28T07:31:14.057Z,14.70
2022-10-28T07:32:45.820Z,17.27
2022-10-28T07:34:17.550Z,15.15
2022-10-28T07:35:49.309Z,14.90
2022-10-28T07:37:21.035Z,14.38
2022-10-28T07:38:53.189Z,14.40
2022-10-28T07:40:25.435Z,13.90
2022-10-28T07:41:57.341Z,14.73
2022-10-28T07:43:29.103Z,12.88
2022-10-28T07:45:01.373Z,14.00
2022-10-28T07:46:34.453Z,12.85
2022-10-28T07:48:07.043Z,13.25
2022-10-28T07:49:38.782Z,12.75
2022-10-28T07:51:13.112Z,13.23
2022-10-28T07:52:44.878Z,13.48
2022-10-28T07:54:16.851Z,11.10
2022-10-28T07:55:59.139Z,13.55
2022-10-28T07:57:31.522Z,14.13
2022-10-28T07:59:03.384Z,13.15
2022-10-28T08:00:35.206Z,12.00
2022-10-28T08:02:07.191Z,12.05
2022-10-28T08:03:39.345Z,11.15
2022-10-28T08:05:11.142Z,11.93
2022-10-28T08:06:44.359Z,13.95
2022-10-28T08:08:16.231Z,13.15
2022-10-28T08:09:47.969Z,12.35
2022-10-28T08:11:22.676Z,11.40
2022-10-28T08:12:57.104Z,11.65
2022-10-28T08:14:28.958Z,14.05
2022-10-28T08:16:00.721Z,12.40
2022-10-28T08:17:32.501Z,12.60
2022-10-28T08:19:07.643Z,12.77
2022-10-28T08:20:39.643Z,12.52
2022-10-28T08:22:11.405Z,12.32
2022-10-28T08:23:46.959Z,11.52
2022-10-28T08:25:18.852Z,10.65
2022-10-28T08:26:50.964Z,10.88
2022-10-28T08:28:23.076Z,10.90
2022-10-28T08:29:54.850Z,11.65
2022-10-28T08:31:26.876Z,13.70
2022-10-28T08:32:58.641Z,11.55
2022-10-28T08:34:31.398Z,9.70
2022-10-28T08:36:03.172Z,10.45
2022-10-28T08:37:35.555Z,8.80
2022-10-28T08:39:07.431Z,9.32
2022-10-28T08:41:10.216Z,8.55
2022-10-28T08:42:49.813Z,10.82
2022-10-28T08:44:39.914Z,11.32
2022-10-28T08:46:17.387Z,9.48
2022-10-28T08:48:21.275Z,9.13
2022-10-28T08:50:00.275Z,10.35
2022-10-28T08:51:42.172Z,10.50
2022-10-28T08:53:20.716Z,10.43
2022-10-28T08:55:04.660Z,8.50
2022-10-28T08:56:46.149Z,8.68
2022-10-28T08:58:28.375Z,8.10
2022-10-28T09:00:00.368Z,7.45
2022-10-28T09:01:48.355Z,9.15
2022-10-28T09:03:27.095Z,10.82
2022-10-28T09:05:12.228Z,8.82
2022-10-28T09:06:44.034Z,8.35
2022-10-28T09:08:29.457Z,10.13
2022-10-28T09:10:01.225Z,9.23
2022-10-28T09:11:54.663Z,10.00
2022-10-28T09:13:35.042Z,12.32
2022-10-28T09:15:29.056Z,8.50
2022-10-28T09:17:37.360Z,9.75
2022-10-28T09:19:19.383Z,8.23
2022-10-28T09:20:56.907Z,10.65
2022-10-28T09:22:53.583Z,9.88
2022-10-28T09:24:42.609Z,10.50
2022-10-28T09:26:24.663Z,10.95
2022-10-28T09:28:28.472Z,8.65
2022-10-28T09:30:25.257Z,7.63
2022-10-28T09:32:08.612Z,9.50
2022-10-28T09:34:14.491Z,9.85
2022-10-28T09:35:48.321Z,12.00
2022-10-28T09:37:35.278Z,9.45
2022-10-28T09:39:16.909Z,7.70
2022-10-28T09:40:56.863Z,6.82
2022-10-28T09:42:35.175Z,9.05
2022-10-28T09:44:21.260Z,6.95
2022-10-28T09:45:58.356Z,8.43
2022-10-28T09:47:37.896Z,9.85
2022-10-28T09:49:18.806Z,8.35
2022-10-28T09:50:52.957Z,7.50
2022-10-28T09:52:37.692Z,7.90
2022-10-28T09:54:11.261Z,11.75
2022-10-28T09:55:43.317Z,9.82
2022-10-28T09:57:17.295Z,8.85
2022-10-28T09:58:49.445Z,10.32
2022-10-28T10:00:21.734Z,9.10
2022-10-28T10:01:53.677Z,8.35
2022-10-28T10:03:25.629Z,7.72
2022-10-28T10:04:58.970Z,8.45
2022-10-28T10:06:37.276Z,10.65
2022-10-28T10:08:14.996Z,9.25
2022-10-28T10:09:46.922Z,8.80
2022-10-28T10:11:40.471Z,8.85
2022-10-28T10:13:14.777Z,8.25
2022-10-28T10:14:52.912Z,8.23
2022-10-28T10:16:56.642Z,9.30
2022-10-28T10:18:35.306Z,7.78
2022-10-28T10:20:15.740Z,7.65
2022-10-28T10:21:54.326Z,8.77
2022-10-28T10:23:26.066Z,10.50
2022-10-28T10:24:57.899Z,7.80
2022-10-28T10:26:32.747Z,7.55
2022-10-28T10:28:16.942Z,8.43
2022-10-28T10:29:51.699Z,8.10
2022-10-28T10:31:27.163Z,8.20
2022-10-28T10:32:59.861Z,8.82
2022-10-28T10:34:31.720Z,11.68
2022-10-28T10:36:09.527Z,8.98
2022-10-28T10:37:45.075Z,10.35
2022-10-28T10:39:37.784Z,9.02
2022-10-28T10:41:09.548Z,9.48
2022-10-28T10:42:51.671Z,8.50
2022-10-28T10:44:35.379Z,8.30
2022-10-28T10:46:18.120Z,9.98
2022-10-28T10:48:06.674Z,9.23
2022-10-28T10:49:38.464Z,9.38
2022-10-28T10:51:22.226Z,7.85
2022-10-28T10:52:57.254Z,8.77
2022-10-28T10:54:32.685Z,7.78
2022-10-28T10:56:08.475Z,8.30
2022-10-28T10:57:41.491Z,8.88
2022-10-28T10:59:23.869Z,9.45
2022-10-28T11:00:58.043Z,9.50
2022-10-28T11:02:39.883Z,9.10
2022-10-28T11:04:21.185Z,11.77
2022-10-28T11:06:21.872Z,8.18
2022-10-28T11:07:52.674Z,9.23
2022-10-28T11:09:39.844Z,9.10
2022-10-28T11:11:20.150Z,8.00
2022-10-28T11:12:55.140Z,8.47
2022-10-28T11:14:30.356Z,9.07
2022-10-28T11:16:18.482Z,8.93
2022-10-28T11:18:16.967Z,8.73
2022-10-28T11:19:53.568Z,7.65
2022-10-28T11:21:45.553Z,9.90
2022-10-28T11:23:28.938Z,9.00
2022-10-28T11:25:09.790Z,9.18
2022-10-28T11:26:51.018Z,8.98
2022-10-28T11:30:02.019Z,8.07
2022-10-28T11:31:52.152Z,8.05
2022-10-28T11:33:47.945Z,8.75
2022-10-28T11:35:44.767Z,8.40
2022-10-28T11:37:25.141Z,8.88
2022-10-28T11:39:15.222Z,9.73
2022-10-28T11:41:08.119Z,8.40
2022-10-28T11:43:04.817Z,9.15
2022-10-28T11:44:36.564Z,9.23
2022-10-28T11:46:29.503Z,8.25
2022-10-28T11:48:35.396Z,8.68
2022-10-28T11:50:16.284Z,8.65
2022-10-28T11:52:12.967Z,10.15
2022-10-28T11:54:03.889Z,8.70
2022-10-28T11:55:47.024Z,8.07
2022-10-28T11:57:47.925Z,8.05
2022-10-28T11:59:19.628Z,9.60
2022-10-28T12:01:47.369Z,11.60
2022-10-28T12:03:56.966Z,9.13
2022-10-28T12:05:41.595Z,10.40
2022-10-28T12:07:59.858Z,8.70
2022-10-28T12:09:31.557Z,10.13
2022-10-28T12:11:22.785Z,8.18
2022-10-28T12:12:57.732Z,7.45
2022-10-28T12:14:29.673Z,8.90
2022-10-28T12:16:17.208Z,9.15
2022-10-28T12:18:06.131Z,9.77
2022-10-28T12:19:59.728Z,9.30
2022-10-28T12:23:29.549Z,8.10
2022-10-28T12:25:14.018Z,9.50
2022-10-28T12:26:50.553Z,8.75
2022-10-28T12:28:27.962Z,8.60
2022-10-28T12:30:21.388Z,9.38
2022-10-28T12:32:07.197Z,9.55
2022-10-28T12:33:47.670Z,8.65
2022-10-28T12:35:24.950Z,8.57
2022-10-28T12:37:09.245Z,9.63
2022-10-28T12:39:02.005Z,10.30
2022-10-28T12:41:00.089Z,9.88
2022-10-28T12:42:36.523Z,9.82
2022-10-28T12:44:13.865Z,9.93
2022-10-28T12:45:49.033Z,9.48
2022-10-28T12:47:45.410Z,9.55
2022-10-28T12:49:42.064Z,9.48
2022-10-28T12:51:23.632Z,9.70
2022-10-28T12:53:01.311Z,9.73
2022-10-28T12:54:53.648Z,10.13
2022-10-28T12:56:37.582Z,9.50
2022-10-28T12:58:20.348Z,9.45
2022-10-28T13:00:03.136Z,10.70
2022-10-28T13:01:35.451Z,10.18
2022-10-28T13:03:11.939Z,9.40
2022-10-28T13:04:43.803Z,8.90
2022-10-28T13:06:30.892Z,10.00
2022-10-28T13:08:23.960Z,10.25
2022-10-28T13:10:10.929Z,9.80
2022-10-28T13:12:21.191Z,12.25
2022-10-28T13:14:12.689Z,9.75
2022-10-28T13:16:01.052Z,12.73
2022-10-28T13:17:38.644Z,10.07
2022-10-28T13:19:25.491Z,12.63
2022-10-28T13:21:16.021Z,10.25
2022-10-28T13:22:52.882Z,9.60
2022-10-28T13:24:27.755Z,9.82
2022-10-28T13:26:01.175Z,9.20
2022-10-28T13:27:33.109Z,9.48
2022-10-28T13:29:07.623Z,9.52
2022-10-28T13:31:02.276Z,10.20
2022-10-28T13:32:40.014Z,10.45
2022-10-28T13:34:13.876Z,10.32
2022-10-28T13:35:47.285Z,10.95
2022-10-28T13:37:22.520Z,14.20
2022-10-28T13:38:59.826Z,10.38
2022-10-28T13:40:31.653Z,10.43
2022-10-28T13:42:12.434Z,10.32
2022-10-28T13:43:50.133Z,10.00
2022-10-28T13:45:54.510Z,10.40
2022-10-28T13:47:33.277Z,10.27
2022-10-28T13:49:22.906Z,11.90
2022-10-28T13:51:09.745Z,11.38
2022-10-28T13:52:44.094Z,10.40
2022-10-28T13:54:44.702Z,9.43
2022-10-28T13:56:28.384Z,10.07
2022-10-28T13:58:05.733Z,11.32
2022-10-28T13:59:51.010Z,10.55
2022-10-28T14:01:41.367Z,10.20
2022-10-28T14:03:25.214Z,11.02
2022-10-28T14:05:02.898Z,9.85
2022-10-28T14:06:35.338Z,9.98
2022-10-28T14:08:18.453Z,10.43
2022-10-28T14:09:54.241Z,9.82
2022-10-28T14:11:32.653Z,11.55
2022-10-28T14:13:07.069Z,10.20
2022-10-28T14:14:50.040Z,11.65
2022-10-28T14:16:43.692Z,9.90
2022-10-28T14:18:41.608Z,10.07
2022-10-28T14:20:22.623Z,10.35
2022-10-28T14:22:02.964Z,11.32
2022-10-28T14:23:36.589Z,9.98
2022-10-28T14:25:40.549Z,11.40
2022-10-28T14:27:15.900Z,10.10
2022-10-28T14:28:52.163Z,11.00
2022-10-28T14:30:24.195Z,10.45
2022-10-28T14:31:56.137Z,10.05
2022-10-28T14:33:27.885Z,9.52
2022-10-28T14:35:03.446Z,9.75
2022-10-28T14:36:50.169Z,10.68
2022-10-28T14:38:45.312Z,10.00
2022-10-28T14:40:24.630Z,15.60
2022-10-28T14:42:42.882Z,10.65
2022-10-28T14:44:29.671Z,11.50
2022-10-28T14:46:16.951Z,10.30
2022-10-28T14:48:13.553Z,9.23
2022-10-28T14:50:01.778Z,11.77
2022-10-28T14:51:40.430Z,13.35
2022-10-28T14:53:34.042Z,10.68
2022-10-28T14:55:08.102Z,10.60
2022-10-28T14:56:41.077Z,10.57
2022-10-28T14:58:21.581Z,12.85
2022-10-28T14:59:55.383Z,10.73
2022-10-28T15:01:35.076Z,12.85
2022-10-28T15:03:11.087Z,10.88
2022-10-28T15:04:47.647Z,11.63
2022-10-28T15:06:26.572Z,13.55
2022-10-28T15:08:03.034Z,10.27
2022-10-28T15:09:39.099Z,10.32
2022-10-28T15:11:10.865Z,13.43
2022-10-28T15:12:45.820Z,10.00
2022-10-28T15:14:32.847Z,11.65
2022-10-28T15:16:04.954Z,9.20
2022-10-28T15:17:39.473Z,11.02
2022-10-28T15:19:16.813Z,11.90
2022-10-28T15:20:50.030Z,11.05
2022-10-28T15:22:33.365Z,11.25
2022-10-28T15:24:07.601Z,10.13
2022-10-28T15:25:39.349Z,12.77
2022-10-28T15:27:13.645Z,12.73
2022-10-28T15:28:45.533Z,11.93
2022-10-28T15:30:23.352Z,12.50
2022-10-28T15:32:05.312Z,10.52
2022-10-28T15:33:40.078Z,12.57
2022-10-28T15:35:27.163Z,12.88
2022-10-28T15:39:04.597Z,12.80
2022-10-28T15:40:37.873Z,13.65
2022-10-28T15:42:49.481Z,13.65
2022-10-28T15:44:39.697Z,13.60
2022-10-28T15:46:16.643Z,11.38
2022-10-28T15:47:48.967Z,11.57
2022-10-28T15:49:36.500Z,15.15
2022-10-28T15:51:12.562Z,14.98
2022-10-28T15:52:50.241Z,13.57
2022-10-28T15:54:22.083Z,11.45
2022-10-28T15:56:21.223Z,11.60
2022-10-28T15:57:58.906Z,11.80
2022-10-28T15:59:30.760Z,17.55
2022-10-28T16:01:02.737Z,14.95
2022-10-28T16:02:43.692Z,11.80
2022-10-28T16:04:18.287Z,12.07
2022-10-28T16:05:50.261Z,11.15
2022-10-28T16:07:22.050Z,11.07
2022-10-28T16:09:12.333Z,15.98
2022-10-28T16:10:47.208Z,12.93
2022-10-28T16:12:24.508Z,12.25
2022-10-28T16:13:56.572Z,12.43
2022-10-28T16:15:28.597Z,13.65
2022-10-28T16:17:15.613Z,12.73
2022-10-28T16:18:51.740Z,15.73
2022-10-28T16:20:30.226Z,12.05
2022-10-28T16:22:02.117Z,14.25
2022-10-28T16:23:38.971Z,13.18
2022-10-28T16:25:22.470Z,12.95
2022-10-28T16:26:54.215Z,10.27
2022-10-28T16:28:27.640Z,12.77
2022-10-28T16:29:59.386Z,12.85
2022-10-28T16:31:31.610Z,15.50
2022-10-28T16:33:03.904Z,12.45
2022-10-28T16:34:35.650Z,12.05
2022-10-28T16:36:07.837Z,14.27
2022-10-28T16:37:44.513Z,10.82
2022-10-28T16:39:17.544Z,12.95
2022-10-28T16:40:52.201Z,11.85
2022-10-28T16:42:24.812Z,13.25
2022-10-28T16:43:56.704Z,12.55
2022-10-28T16:45:28.716Z,13.15
2022-10-28T16:47:00.461Z,14.85
2022-10-28T16:48:32.566Z,14.45
2022-10-28T16:50:04.729Z,15.80
2022-10-28T16:51:36.579Z,11.43
2022-10-28T16:53:11.977Z,11.48
2022-10-28T16:54:43.833Z,14.00
2022-10-28T16:56:16.599Z,13.52
2022-10-28T16:57:48.525Z,14.20
2022-10-28T16:59:20.283Z,12.00
2022-10-28T17:00:52.572Z,11.38
2022-10-28T17:02:31.786Z,12.10
2022-10-28T17:04:03.760Z,14.60
2022-10-28T17:05:35.550Z,12.38
2022-10-28T17:07:07.399Z,12.10
2022-10-28T17:10:31.297Z,13.32
2022-10-28T17:12:03.016Z,14.23
2022-10-28T17:13:34.853Z,14.38
2022-10-28T17:15:07.317Z,12.95
2022-10-28T17:16:42.290Z,12.18
2022-10-28T17:18:15.208Z,14.88
2022-10-28T17:19:47.039Z,13.05
2022-10-28T17:21:18.820Z,12.73
2022-10-28T17:22:50.582Z,14.02
2022-10-28T17:24:22.425Z,14.00
2022-10-28T17:25:58.779Z,11.68
2022-10-28T17:27:30.517Z,13.32
2022-10-28T17:29:02.312Z,12.75
2022-10-28T17:30:34.195Z,12.77
2022-10-28T17:32:08.736Z,12.10
2022-10-28T17:33:40.504Z,13.38
2022-10-28T17:35:12.344Z,12.88
2022-10-28T17:36:44.132Z,14.32
2022-10-28T17:38:15.913Z,13.85
2022-10-28T17:39:47.766Z,12.60
2022-10-28T17:41:19.859Z,14.50
2022-10-28T17:42:51.646Z,16.05
2022-10-28T17:44:23.416Z,14.18
2022-10-28T17:46:04.471Z,14.05
2022-10-28T17:47:36.337Z,14.48
2022-10-28T17:49:08.940Z,13.90
2022-10-28T17:50:40.884Z,12.95
2022-10-28T17:52:13.508Z,14.07
2022-10-28T17:53:45.232Z,12.63
2022-10-28T17:55:17.108Z,12.60
2022-10-28T17:56:49.055Z,14.90
2022-10-28T17:58:20.787Z,13.63
2022-10-28T17:59:52.544Z,13.88
2022-10-28T18:01:24.501Z,14.32
2022-10-28T18:02:57.031Z,16.77
2022-10-28T18:04:30.350Z,15.02
2022-10-28T18:06:03.719Z,14.90
2022-10-28T18:07:35.477Z,14.50
2022-10-28T18:09:10.970Z,13.70
2022-10-28T18:10:57.241Z,16.73
2022-10-28T18:12:28.977Z,12.60
2022-10-28T18:14:04.466Z,14.38
2022-10-28T18:15:37.121Z,15.45
2022-10-28T18:17:08.908Z,15.93
2022-10-28T18:18:42.714Z,13.38
2022-10-28T18:20:14.997Z,15.82
2022-10-28T18:21:46.802Z,15.85
2022-10-28T18:23:18.524Z,14.02
2022-10-28T18:24:50.292Z,15.80
2022-10-28T18:26:22.032Z,17.88
2022-10-28T18:27:53.841Z,13.77
2022-10-28T18:29:25.984Z,15.35
2022-10-28T18:31:14.560Z,15.35
2022-10-28T18:32:46.362Z,16.05
2022-10-28T18:34:18.241Z,16.02
2022-10-28T18:35:49.979Z,15.30
2022-10-28T18:37:22.126Z,15.40
2022-10-28T18:38:53.865Z,15.52
2022-10-28T18:40:25.662Z,16.83
2022-10-28T18:41:57.392Z,14.98
2022-10-28T18:43:29.571Z,14.98
2022-10-28T18:45:01.337Z,17.58
2022-10-28T18:46:37.878Z,17.65
2022-10-28T18:48:09.619Z,13.13
2022-10-28T18:49:41.687Z,15.68
2022-10-28T18:51:15.718Z,15.55
2022-10-28T18:52:47.457Z,13.23
2022-10-28T18:54:19.234Z,16.02
2022-10-28T18:55:51.256Z,16.52
2022-10-28T18:57:22.997Z,17.35
2022-10-28T18:58:55.467Z,15.85
2022-10-28T19:00:27.500Z,13.90
2022-10-28T19:01:59.368Z,15.93
2022-10-28T19:03:31.328Z,15.27
2022-10-28T19:05:03.208Z,14.60
2022-10-28T19:06:35.033Z,16.90
2022-10-28T19:08:06.779Z,14.30
2022-10-28T19:09:38.927Z,15.13
2022-10-28T19:11:13.472Z,16.00
2022-10-28T19:12:46.985Z,13.30
2022-10-28T19:14:22.381Z,15.15
2022-10-28T19:15:54.532Z,15.35
2022-10-28T19:17:26.369Z,13.07
2022-10-28T19:18:59.378Z,12.55
2022-10-28T19:20:31.080Z,14.25
2022-10-28T19:22:02.822Z,13.57
2022-10-28T19:23:34.688Z,15.25
2022-10-28T19:25:06.823Z,15.65
2022-10-28T19:26:39.517Z,13.98
2022-10-28T19:28:11.276Z,14.45
2022-10-28T19:29:43.050Z,13.23
2022-10-28T19:31:18.617Z,13.88
2022-10-28T19:32:50.372Z,14.15
2022-10-28T19:34:22.204Z,13.65
2022-10-28T19:35:54.009Z,13.45
2022-10-28T19:37:27.251Z,14.27
2022-10-28T19:38:59.097Z,15.02
2022-10-28T19:40:31.090Z,13.75
2022-10-28T19:42:02.893Z,16.60
2022-10-28T19:43:35.597Z,15.65
2022-10-28T19:45:08.161Z,16.08
2022-10-28T19:46:39.925Z,12.95
2022-10-28T19:48:11.669Z,14.65
2022-10-28T19:49:44.481Z,14.02
2022-10-28T19:51:19.880Z,14.80
2022-10-28T19:52:51.620Z,18.55
2022-10-28T19:54:23.399Z,13.93
2022-10-28T19:55:59.809Z,14.10
2022-10-28T19:57:31.627Z,14.00
2022-10-28T19:59:05.107Z,14.30
2022-10-28T20:00:36.849Z,13.90
2022-10-28T20:02:10.312Z,15.25
2022-10-28T20:03:48.013Z,16.38
2022-10-28T20:05:20.858Z,15.07
2022-10-28T20:06:52.722Z,12.98
2022-10-28T20:08:24.465Z,14.82
2022-10-28T20:11:48.898Z,12.82
2022-10-28T20:13:20.649Z,13.75
2022-10-28T20:14:52.359Z,16.85
2022-10-28T20:16:25.220Z,13.50
2022-10-28T20:17:57.563Z,12.75
2022-10-28T20:19:29.297Z,12.27
2022-10-28T20:21:10.296Z,13.63
2022-10-28T20:22:42.571Z,12.90
2022-10-28T20:24:15.695Z,14.05
2022-10-28T20:25:52.357Z,12.55
2022-10-28T20:27:24.096Z,13.82
2022-10-28T20:28:56.503Z,13.80
2022-10-28T20:30:28.256Z,13.48
2022-10-28T20:31:59.979Z,12.38
2022-10-28T20:33:31.994Z,12.95
2022-10-28T20:35:03.890Z,12.95
2022-10-28T20:36:38.264Z,12.13
2022-10-28T20:38:10.065Z,12.50
2022-10-28T20:39:41.909Z,12.68
2022-10-28T20:41:15.911Z,11.82
2022-10-28T20:42:47.653Z,14.02
2022-10-28T20:44:19.471Z,12.93
2022-10-28T20:45:59.921Z,13.18
2022-10-28T20:47:31.676Z,12.47
2022-10-28T20:49:04.215Z,13.00
2022-10-28T20:50:36.246Z,12.90
2022-10-28T20:52:08.144Z,13.60
2022-10-28T20:53:39.899Z,13.52
2022-10-28T20:55:11.876Z,15.63
2022-10-28T20:56:43.693Z,13.75
2022-10-28T20:58:15.527Z,17.42
2022-10-28T20:59:49.384Z,12.90
2022-10-28T21:01:26.764Z,15.55
2022-10-28T21:02:59.248Z,12.82
2022-10-28T21:04:31.577Z,14.07
2022-10-28T21:06:03.785Z,11.65
2022-10-28T21:07:36.094Z,12.77